sensor_id;sensor_type;location;lat;lon;timestamp;P1;durP1;ratioP1;P2;durP2;ratioP2
2129;SDS011;1071;52.544;13.374;2023-02-15T00:00:38;29.95;;;20.70;;
2129;SDS011;1071;52.544;13.374;2023-02-15T00:03:08;26.30;;;20.27;;
2129;SDS011;1071;52.544;13.374;2023-02-15T00:05:35;32.13;;;20.77;;
2129;SDS011;1071;52.544;13.374;2023-02-15T00:08:04;22.25;;;19.02;;
2129;SDS011;1071;52.544;13.374;2023-02-15T00:10:32;28.02;;;19.55;;
2129;SDS011;1071;52.544;13.374;2023-02-15T00:12:59;28.08;;;19.65;;
2129;SDS011;1071;52.544;13.374;2023-02-15T00:15:27;23.85;;;17.60;;
2129;SDS011;1071;52.544;13.374;2023-02-15T00:17:59;33.65;;;21.25;;
2129;SDS011;1071;52.544;13.374;2023-02-15T00:20:27;29.52;;;21.25;;
2129;SDS011;1071;52.544;13.374;2023-02-15T00:22:54;25.73;;;18.35;;
2129;SDS011;1071;52.544;13.374;2023-02-15T00:25:22;25.35;;;19.48;;
2129;SDS011;1071;52.544;13.374;2023-02-15T00:27:49;24.63;;;18.25;;
2129;SDS011;1071;52.544;13.374;2023-02-15T00:30:17;29.13;;;20.42;;
2129;SDS011;1071;52.544;13.374;2023-02-15T00:32:45;29.63;;;20.23;;
2129;SDS011;1071;52.544;13.374;2023-02-15T00:35:14;29.95;;;21.67;;
2129;SDS011;1071;52.544;13.374;2023-02-15T00:37:43;32.10;;;21.95;;
2129;SDS011;1071;52.544;13.374;2023-02-15T00:40:11;33.80;;;22.45;;
2129;SDS011;1071;52.544;13.374;2023-02-15T00:42:40;30.27;;;21.38;;
2129;SDS011;1071;52.544;13.374;2023-02-15T00:45:08;26.38;;;21.33;;
2129;SDS011;1071;52.544;13.374;2023-02-15T00:47:36;28.98;;;21.90;;
2129;SDS011;1071;52.544;13.374;2023-02-15T00:50:04;28.80;;;20.65;;
2129;SDS011;1071;52.544;13.374;2023-02-15T00:52:32;27.80;;;21.10;;
2129;SDS011;1071;52.544;13.374;2023-02-15T00:55:00;28.77;;;21.67;;
2129;SDS011;1071;52.544;13.374;2023-02-15T00:57:30;32.95;;;23.38;;
2129;SDS011;1071;52.544;13.374;2023-02-15T00:59:58;29.67;;;21.58;;
2129;SDS011;1071;52.544;13.374;2023-02-15T01:02:28;29.02;;;21.13;;
2129;SDS011;1071;52.544;13.374;2023-02-15T01:04:57;33.17;;;22.55;;
2129;SDS011;1071;52.544;13.374;2023-02-15T01:07:24;30.20;;;23.23;;
2129;SDS011;1071;52.544;13.374;2023-02-15T01:09:51;32.25;;;23.75;;
2129;SDS011;1071;52.544;13.374;2023-02-15T01:12:18;34.75;;;23.95;;
2129;SDS011;1071;52.544;13.374;2023-02-15T01:14:45;36.30;;;25.08;;
2129;SDS011;1071;52.544;13.374;2023-02-15T01:17:14;34.90;;;23.85;;
2129;SDS011;1071;52.544;13.374;2023-02-15T01:19:41;30.10;;;24.35;;
2129;SDS011;1071;52.544;13.374;2023-02-15T01:22:10;30.25;;;23.90;;
2129;SDS011;1071;52.544;13.374;2023-02-15T01:24:39;38.55;;;27.98;;
2129;SDS011;1071;52.544;13.374;2023-02-15T01:27:06;34.45;;;25.08;;
2129;SDS011;1071;52.544;13.374;2023-02-15T01:29:33;31.15;;;22.73;;
2129;SDS011;1071;52.544;13.374;2023-02-15T01:32:01;35.10;;;26.35;;
2129;SDS011;1071;52.544;13.374;2023-02-15T01:34:29;36.03;;;25.83;;
2129;SDS011;1071;52.544;13.374;2023-02-15T01:36:59;36.55;;;25.20;;
2129;SDS011;1071;52.544;13.374;2023-02-15T01:39:27;33.75;;;22.63;;
2129;SDS011;1071;52.544;13.374;2023-02-15T01:41:54;33.55;;;23.55;;
2129;SDS011;1071;52.544;13.374;2023-02-15T01:47:15;33.28;;;25.25;;
2129;SDS011;1071;52.544;13.374;2023-02-15T01:49:48;37.70;;;25.10;;
2129;SDS011;1071;52.544;13.374;2023-02-15T01:52:24;37.72;;;27.02;;
2129;SDS011;1071;52.544;13.374;2023-02-15T01:54:52;40.95;;;27.45;;
2129;SDS011;1071;52.544;13.374;2023-02-15T01:57:22;42.88;;;27.70;;
2129;SDS011;1071;52.544;13.374;2023-02-15T01:59:52;37.88;;;27.83;;
2129;SDS011;1071;52.544;13.374;2023-02-15T02:02:24;38.05;;;27.33;;
2129;SDS011;1071;52.544;13.374;2023-02-15T02:04:56;34.42;;;25.13;;
2129;SDS011;1071;52.544;13.374;2023-02-15T02:07:28;35.97;;;26.02;;
2129;SDS011;1071;52.544;13.374;2023-02-15T02:09:59;37.33;;;26.67;;
2129;SDS011;1071;52.544;13.374;2023-02-15T02:12:28;40.17;;;25.30;;
2129;SDS011;1071;52.544;13.374;2023-02-15T02:14:56;35.50;;;24.67;;
2129;SDS011;1071;52.544;13.374;2023-02-15T02:17:26;41.92;;;28.17;;
2129;SDS011;1071;52.544;13.374;2023-02-15T02:20:11;41.15;;;27.85;;
2129;SDS011;1071;52.544;13.374;2023-02-15T02:23:16;41.75;;;26.17;;
2129;SDS011;1071;52.544;13.374;2023-02-15T02:35:27;38.60;;;26.48;;
2129;SDS011;1071;52.544;13.374;2023-02-15T02:38:00;36.63;;;25.08;;
2129;SDS011;1071;52.544;13.374;2023-02-15T02:40:34;37.97;;;27.35;;
2129;SDS011;1071;52.544;13.374;2023-02-15T02:43:10;41.20;;;27.70;;
2129;SDS011;1071;52.544;13.374;2023-02-15T02:45:46;38.13;;;26.48;;
2129;SDS011;1071;52.544;13.374;2023-02-15T02:48:20;39.53;;;27.73;;
2129;SDS011;1071;52.544;13.374;2023-02-15T02:50:53;37.05;;;24.48;;
2129;SDS011;1071;52.544;13.374;2023-02-15T02:53:21;36.83;;;26.20;;
2129;SDS011;1071;52.544;13.374;2023-02-15T02:55:49;39.78;;;28.02;;
2129;SDS011;1071;52.544;13.374;2023-02-15T02:58:21;36.70;;;27.27;;
2129;SDS011;1071;52.544;13.374;2023-02-15T03:00:52;42.30;;;27.20;;
2129;SDS011;1071;52.544;13.374;2023-02-15T03:03:23;44.08;;;27.60;;
2129;SDS011;1071;52.544;13.374;2023-02-15T03:05:56;41.67;;;28.33;;
2129;SDS011;1071;52.544;13.374;2023-02-15T03:08:30;42.67;;;27.23;;
2129;SDS011;1071;52.544;13.374;2023-02-15T03:11:02;37.17;;;27.13;;
2129;SDS011;1071;52.544;13.374;2023-02-15T03:13:31;35.97;;;26.30;;
2129;SDS011;1071;52.544;13.374;2023-02-15T03:15:59;44.53;;;28.80;;
2129;SDS011;1071;52.544;13.374;2023-02-15T03:18:48;39.95;;;29.90;;
2129;SDS011;1071;52.544;13.374;2023-02-15T03:21:25;42.53;;;29.20;;
2129;SDS011;1071;52.544;13.374;2023-02-15T03:23:59;44.10;;;29.55;;
2129;SDS011;1071;52.544;13.374;2023-02-15T03:26:32;45.38;;;27.92;;
2129;SDS011;1071;52.544;13.374;2023-02-15T03:29:00;45.80;;;31.77;;
2129;SDS011;1071;52.544;13.374;2023-02-15T03:31:30;39.83;;;27.55;;
2129;SDS011;1071;52.544;13.374;2023-02-15T03:34:06;50.45;;;32.05;;
2129;SDS011;1071;52.544;13.374;2023-02-15T03:36:39;55.75;;;32.78;;
2129;SDS011;1071;52.544;13.374;2023-02-15T03:39:12;56.50;;;33.88;;
2129;SDS011;1071;52.544;13.374;2023-02-15T03:41:47;53.30;;;34.70;;
2129;SDS011;1071;52.544;13.374;2023-02-15T03:44:19;49.88;;;32.83;;
2129;SDS011;1071;52.544;13.374;2023-02-15T03:46:52;46.53;;;31.40;;
2129;SDS011;1071;52.544;13.374;2023-02-15T03:49:27;52.50;;;31.38;;
2129;SDS011;1071;52.544;13.374;2023-02-15T03:52:07;53.58;;;32.92;;
2129;SDS011;1071;52.544;13.374;2023-02-15T03:54:37;48.58;;;32.53;;
2129;SDS011;1071;52.544;13.374;2023-02-15T03:57:09;54.33;;;34.05;;
2129;SDS011;1071;52.544;13.374;2023-02-15T03:59:56;52.63;;;33.25;;
2129;SDS011;1071;52.544;13.374;2023-02-15T04:02:44;51.78;;;33.00;;
2129;SDS011;1071;52.544;13.374;2023-02-15T04:05:21;49.85;;;32.28;;
2129;SDS011;1071;52.544;13.374;2023-02-15T04:07:50;54.47;;;34.50;;
2129;SDS011;1071;52.544;13.374;2023-02-15T04:10:17;54.72;;;33.92;;
2129;SDS011;1071;52.544;13.374;2023-02-15T04:13:06;48.55;;;33.05;;
2129;SDS011;1071;52.544;13.374;2023-02-15T04:15:33;54.03;;;33.38;;
2129;SDS011;1071;52.544;13.374;2023-02-15T04:18:17;52.38;;;32.38;;
2129;SDS011;1071;52.544;13.374;2023-02-15T04:20:44;52.83;;;35.03;;
2129;SDS011;1071;52.544;13.374;2023-02-15T04:23:30;59.63;;;36.15;;
2129;SDS011;1071;52.544;13.374;2023-02-15T04:26:17;51.42;;;33.35;;
2129;SDS011;1071;52.544;13.374;2023-02-15T04:28:45;48.45;;;32.90;;
2129;SDS011;1071;52.544;13.374;2023-02-15T04:31:12;51.00;;;31.63;;
2129;SDS011;1071;52.544;13.374;2023-02-15T04:33:40;50.58;;;33.05;;
2129;SDS011;1071;52.544;13.374;2023-02-15T04:36:13;51.22;;;30.65;;
2129;SDS011;1071;52.544;13.374;2023-02-15T04:38:41;48.63;;;32.38;;
2129;SDS011;1071;52.544;13.374;2023-02-15T04:41:08;53.30;;;33.80;;
2129;SDS011;1071;52.544;13.374;2023-02-15T04:43:37;46.70;;;31.15;;
2129;SDS011;1071;52.544;13.374;2023-02-15T04:46:04;59.38;;;33.45;;
2129;SDS011;1071;52.544;13.374;2023-02-15T04:48:31;42.65;;;29.58;;
2129;SDS011;1071;52.544;13.374;2023-02-15T04:50:58;49.88;;;33.38;;
2129;SDS011;1071;52.544;13.374;2023-02-15T04:53:25;55.42;;;32.78;;
2129;SDS011;1071;52.544;13.374;2023-02-15T04:56:03;48.70;;;30.58;;
2129;SDS011;1071;52.544;13.374;2023-02-15T04:58:30;51.05;;;30.90;;
2129;SDS011;1071;52.544;13.374;2023-02-15T05:00:57;52.45;;;31.75;;
2129;SDS011;1071;52.544;13.374;2023-02-15T05:03:24;58.28;;;31.17;;
2129;SDS011;1071;52.544;13.374;2023-02-15T05:05:52;45.20;;;30.15;;
2129;SDS011;1071;52.544;13.374;2023-02-15T05:08:19;50.53;;;34.40;;
2129;SDS011;1071;52.544;13.374;2023-02-15T05:10:48;47.08;;;29.65;;
2129;SDS011;1071;52.544;13.374;2023-02-15T05:13:17;47.50;;;31.70;;
2129;SDS011;1071;52.544;13.374;2023-02-15T05:15:46;50.00;;;29.88;;
2129;SDS011;1071;52.544;13.374;2023-02-15T05:18:17;49.35;;;31.80;;
2129;SDS011;1071;52.544;13.374;2023-02-15T05:20:45;51.70;;;31.20;;
2129;SDS011;1071;52.544;13.374;2023-02-15T05:23:12;49.50;;;31.90;;
2129;SDS011;1071;52.544;13.374;2023-02-15T05:25:39;49.20;;;31.45;;
2129;SDS011;1071;52.544;13.374;2023-02-15T05:28:26;48.90;;;29.70;;
2129;SDS011;1071;52.544;13.374;2023-02-15T05:30:59;51.22;;;30.45;;
2129;SDS011;1071;52.544;13.374;2023-02-15T05:33:32;46.30;;;30.42;;
2129;SDS011;1071;52.544;13.374;2023-02-15T05:35:59;53.13;;;31.88;;
2129;SDS011;1071;52.544;13.374;2023-02-15T05:38:27;47.67;;;31.65;;
2129;SDS011;1071;52.544;13.374;2023-02-15T05:40:54;47.83;;;30.25;;
2129;SDS011;1071;52.544;13.374;2023-02-15T05:43:22;44.45;;;29.23;;
2129;SDS011;1071;52.544;13.374;2023-02-15T05:45:51;49.53;;;32.83;;
2129;SDS011;1071;52.544;13.374;2023-02-15T05:48:21;53.15;;;31.15;;
2129;SDS011;1071;52.544;13.374;2023-02-15T05:50:56;50.30;;;30.98;;
2129;SDS011;1071;52.544;13.374;2023-02-15T05:53:24;52.15;;;32.88;;
2129;SDS011;1071;52.544;13.374;2023-02-15T05:55:51;50.58;;;30.73;;
2129;SDS011;1071;52.544;13.374;2023-02-15T05:58:19;47.15;;;30.23;;
2129;SDS011;1071;52.544;13.374;2023-02-15T06:00:46;55.60;;;32.13;;
2129;SDS011;1071;52.544;13.374;2023-02-15T06:03:27;52.90;;;32.85;;
2129;SDS011;1071;52.544;13.374;2023-02-15T06:05:56;61.20;;;32.15;;
2129;SDS011;1071;52.544;13.374;2023-02-15T06:08:27;54.13;;;29.88;;
2129;SDS011;1071;52.544;13.374;2023-02-15T06:10:55;53.10;;;34.85;;
2129;SDS011;1071;52.544;13.374;2023-02-15T06:13:22;56.35;;;33.15;;
2129;SDS011;1071;52.544;13.374;2023-02-15T06:15:52;49.67;;;30.45;;
2129;SDS011;1071;52.544;13.374;2023-02-15T06:18:19;53.38;;;33.40;;
2129;SDS011;1071;52.544;13.374;2023-02-15T06:20:49;58.80;;;33.75;;
2129;SDS011;1071;52.544;13.374;2023-02-15T06:23:18;52.30;;;32.00;;
2129;SDS011;1071;52.544;13.374;2023-02-15T06:25:45;55.17;;;32.72;;
2129;SDS011;1071;52.544;13.374;2023-02-15T06:28:12;51.67;;;30.67;;
2129;SDS011;1071;52.544;13.374;2023-02-15T06:30:39;53.05;;;32.30;;
2129;SDS011;1071;52.544;13.374;2023-02-15T06:33:06;53.50;;;30.50;;
2129;SDS011;1071;52.544;13.374;2023-02-15T06:35:34;57.63;;;32.42;;
2129;SDS011;1071;52.544;13.374;2023-02-15T06:38:03;59.72;;;35.10;;
2129;SDS011;1071;52.544;13.374;2023-02-15T06:40:30;51.15;;;30.70;;
2129;SDS011;1071;52.544;13.374;2023-02-15T06:43:00;63.60;;;35.00;;
2129;SDS011;1071;52.544;13.374;2023-02-15T06:45:27;61.72;;;33.53;;
2129;SDS011;1071;52.544;13.374;2023-02-15T06:47:54;66.00;;;35.05;;
2129;SDS011;1071;52.544;13.374;2023-02-15T06:50:24;59.03;;;32.85;;
2129;SDS011;1071;52.544;13.374;2023-02-15T06:52:54;59.10;;;34.33;;
2129;SDS011;1071;52.544;13.374;2023-02-15T06:55:23;66.53;;;32.63;;
2129;SDS011;1071;52.544;13.374;2023-02-15T06:57:50;55.85;;;34.40;;
2129;SDS011;1071;52.544;13.374;2023-02-15T07:00:17;56.28;;;31.65;;
2129;SDS011;1071;52.544;13.374;2023-02-15T07:02:47;67.45;;;36.42;;
2129;SDS011;1071;52.544;13.374;2023-02-15T07:05:14;60.08;;;34.95;;
2129;SDS011;1071;52.544;13.374;2023-02-15T07:07:41;67.45;;;35.15;;
2129;SDS011;1071;52.544;13.374;2023-02-15T07:10:08;71.28;;;37.47;;
2129;SDS011;1071;52.544;13.374;2023-02-15T07:12:37;73.82;;;35.60;;
2129;SDS011;1071;52.544;13.374;2023-02-15T07:15:15;66.45;;;34.38;;
2129;SDS011;1071;52.544;13.374;2023-02-15T07:17:45;80.40;;;39.72;;
2129;SDS011;1071;52.544;13.374;2023-02-15T07:20:13;64.50;;;37.10;;
2129;SDS011;1071;52.544;13.374;2023-02-15T07:22:42;68.82;;;38.58;;
2129;SDS011;1071;52.544;13.374;2023-02-15T07:25:09;68.82;;;38.85;;
2129;SDS011;1071;52.544;13.374;2023-02-15T07:27:39;71.82;;;38.40;;
2129;SDS011;1071;52.544;13.374;2023-02-15T07:30:07;79.15;;;38.75;;
2129;SDS011;1071;52.544;13.374;2023-02-15T07:32:37;69.32;;;36.88;;
2129;SDS011;1071;52.544;13.374;2023-02-15T07:35:25;68.15;;;39.97;;
2129;SDS011;1071;52.544;13.374;2023-02-15T07:37:52;71.18;;;36.72;;
2129;SDS011;1071;52.544;13.374;2023-02-15T07:40:20;74.65;;;37.65;;
2129;SDS011;1071;52.544;13.374;2023-02-15T07:42:50;69.88;;;38.90;;
2129;SDS011;1071;52.544;13.374;2023-02-15T07:45:19;71.80;;;36.95;;
2129;SDS011;1071;52.544;13.374;2023-02-15T07:47:47;70.13;;;39.28;;
2129;SDS011;1071;52.544;13.374;2023-02-15T07:50:14;65.18;;;39.50;;
2129;SDS011;1071;52.544;13.374;2023-02-15T07:52:44;71.32;;;37.50;;
2129;SDS011;1071;52.544;13.374;2023-02-15T07:55:11;68.18;;;35.75;;
2129;SDS011;1071;52.544;13.374;2023-02-15T07:57:41;73.97;;;38.17;;
2129;SDS011;1071;52.544;13.374;2023-02-15T08:00:14;66.15;;;36.13;;
2129;SDS011;1071;52.544;13.374;2023-02-15T08:02:47;80.32;;;37.47;;
2129;SDS011;1071;52.544;13.374;2023-02-15T08:05:37;63.20;;;35.22;;
2129;SDS011;1071;52.544;13.374;2023-02-15T08:08:08;75.85;;;36.95;;
2129;SDS011;1071;52.544;13.374;2023-02-15T08:10:58;71.18;;;36.28;;
2129;SDS011;1071;52.544;13.374;2023-02-15T08:13:43;69.28;;;38.15;;
2129;SDS011;1071;52.544;13.374;2023-02-15T08:16:23;65.97;;;36.47;;
2129;SDS011;1071;52.544;13.374;2023-02-15T08:18:51;54.20;;;33.97;;
2129;SDS011;1071;52.544;13.374;2023-02-15T08:21:19;54.88;;;33.83;;
2129;SDS011;1071;52.544;13.374;2023-02-15T08:23:51;50.00;;;31.67;;
2129;SDS011;1071;52.544;13.374;2023-02-15T08:26:20;55.88;;;33.65;;
2129;SDS011;1071;52.544;13.374;2023-02-15T08:28:47;50.92;;;30.25;;
2129;SDS011;1071;52.544;13.374;2023-02-15T08:31:15;58.05;;;29.15;;
2129;SDS011;1071;52.544;13.374;2023-02-15T08:33:44;51.67;;;31.48;;
2129;SDS011;1071;52.544;13.374;2023-02-15T08:36:13;54.08;;;32.67;;
2129;SDS011;1071;52.544;13.374;2023-02-15T08:38:44;52.45;;;32.70;;
2129;SDS011;1071;52.544;13.374;2023-02-15T08:41:12;55.10;;;32.70;;
2129;SDS011;1071;52.544;13.374;2023-02-15T08:43:43;58.40;;;33.15;;
2129;SDS011;1071;52.544;13.374;2023-02-15T08:46:11;63.30;;;35.75;;
2129;SDS011;1071;52.544;13.374;2023-02-15T08:48:40;60.00;;;34.42;;
2129;SDS011;1071;52.544;13.374;2023-02-15T08:51:12;61.47;;;34.70;;
2129;SDS011;1071;52.544;13.374;2023-02-15T08:53:41;49.25;;;29.73;;
2129;SDS011;1071;52.544;13.374;2023-02-15T08:56:13;53.40;;;32.03;;
2129;SDS011;1071;52.544;13.374;2023-02-15T08:58:39;54.10;;;31.75;;
2129;SDS011;1071;52.544;13.374;2023-02-15T09:01:13;47.00;;;28.42;;
2129;SDS011;1071;52.544;13.374;2023-02-15T09:03:49;54.83;;;28.70;;
2129;SDS011;1071;52.544;13.374;2023-02-15T09:06:21;48.83;;;28.85;;
2129;SDS011;1071;52.544;13.374;2023-02-15T09:08:52;43.10;;;27.90;;
2129;SDS011;1071;52.544;13.374;2023-02-15T09:11:20;53.95;;;29.27;;
2129;SDS011;1071;52.544;13.374;2023-02-15T09:13:49;47.15;;;29.00;;
2129;SDS011;1071;52.544;13.374;2023-02-15T09:16:17;41.33;;;26.27;;
2129;SDS011;1071;52.544;13.374;2023-02-15T09:18:45;46.63;;;28.55;;
2129;SDS011;1071;52.544;13.374;2023-02-15T09:21:14;42.80;;;28.08;;
2129;SDS011;1071;52.544;13.374;2023-02-15T09:30:03;41.97;;;26.00;;
2129;SDS011;1071;52.544;13.374;2023-02-15T09:32:31;43.30;;;27.45;;
2129;SDS011;1071;52.544;13.374;2023-02-15T09:34:58;43.30;;;29.10;;
2129;SDS011;1071;52.544;13.374;2023-02-15T09:37:25;45.33;;;28.23;;
2129;SDS011;1071;52.544;13.374;2023-02-15T09:39:52;42.60;;;26.70;;
2129;SDS011;1071;52.544;13.374;2023-02-15T09:42:43;43.33;;;25.63;;
2129;SDS011;1071;52.544;13.374;2023-02-15T09:45:48;37.67;;;26.02;;
2129;SDS011;1071;52.544;13.374;2023-02-15T09:48:40;36.13;;;23.65;;
2129;SDS011;1071;52.544;13.374;2023-02-15T09:51:20;34.42;;;24.88;;
2129;SDS011;1071;52.544;13.374;2023-02-15T09:54:12;33.17;;;21.92;;
2129;SDS011;1071;52.544;13.374;2023-02-15T09:56:50;37.42;;;24.15;;
2129;SDS011;1071;52.544;13.374;2023-02-15T09:59:25;35.15;;;24.23;;
2129;SDS011;1071;52.544;13.374;2023-02-15T10:02:04;36.63;;;25.10;;
2129;SDS011;1071;52.544;13.374;2023-02-15T10:04:46;38.30;;;23.55;;
2129;SDS011;1071;52.544;13.374;2023-02-15T10:07:30;33.88;;;23.42;;
2129;SDS011;1071;52.544;13.374;2023-02-15T10:10:15;33.90;;;23.30;;
2129;SDS011;1071;52.544;13.374;2023-02-15T10:12:57;37.13;;;24.75;;
2129;SDS011;1071;52.544;13.374;2023-02-15T10:15:39;36.97;;;22.80;;
2129;SDS011;1071;52.544;13.374;2023-02-15T10:18:30;37.50;;;25.73;;
2129;SDS011;1071;52.544;13.374;2023-02-15T10:21:19;39.00;;;26.08;;
2129;SDS011;1071;52.544;13.374;2023-02-15T10:24:02;34.63;;;24.90;;
2129;SDS011;1071;52.544;13.374;2023-02-15T10:26:49;37.42;;;26.48;;
2129;SDS011;1071;52.544;13.374;2023-02-15T10:29:24;37.88;;;27.23;;
2129;SDS011;1071;52.544;13.374;2023-02-15T10:32:04;32.00;;;22.85;;
2129;SDS011;1071;52.544;13.374;2023-02-15T10:34:50;36.33;;;21.85;;
2129;SDS011;1071;52.544;13.374;2023-02-15T10:37:26;35.53;;;24.75;;
2129;SDS011;1071;52.544;13.374;2023-02-15T10:40:09;35.10;;;25.17;;
2129;SDS011;1071;52.544;13.374;2023-02-15T10:42:48;33.38;;;24.00;;
2129;SDS011;1071;52.544;13.374;2023-02-15T10:45:30;35.67;;;24.15;;
2129;SDS011;1071;52.544;13.374;2023-02-15T10:48:10;38.75;;;26.52;;
2129;SDS011;1071;52.544;13.374;2023-02-15T10:50:57;34.78;;;25.27;;
2129;SDS011;1071;52.544;13.374;2023-02-15T10:56:29;39.50;;;26.30;;
2129;SDS011;1071;52.544;13.374;2023-02-15T10:59:07;37.15;;;24.77;;
2129;SDS011;1071;52.544;13.374;2023-02-15T11:01:49;31.75;;;23.02;;
2129;SDS011;1071;52.544;13.374;2023-02-15T11:04:30;36.10;;;25.65;;
2129;SDS011;1071;52.544;13.374;2023-02-15T11:07:11;36.70;;;23.25;;
2129;SDS011;1071;52.544;13.374;2023-02-15T11:09:44;36.65;;;25.92;;
2129;SDS011;1071;52.544;13.374;2023-02-15T11:12:18;31.75;;;21.80;;
2129;SDS011;1071;52.544;13.374;2023-02-15T11:14:50;35.88;;;23.30;;
2129;SDS011;1071;52.544;13.374;2023-02-15T11:17:22;37.60;;;23.80;;
2129;SDS011;1071;52.544;13.374;2023-02-15T11:19:56;26.85;;;21.33;;
2129;SDS011;1071;52.544;13.374;2023-02-15T11:22:29;39.90;;;26.38;;
2129;SDS011;1071;52.544;13.374;2023-02-15T11:25:01;32.28;;;24.85;;
2129;SDS011;1071;52.544;13.374;2023-02-15T11:27:40;38.20;;;24.63;;
2129;SDS011;1071;52.544;13.374;2023-02-15T11:30:10;34.40;;;23.70;;
2129;SDS011;1071;52.544;13.374;2023-02-15T11:32:42;34.17;;;23.08;;
2129;SDS011;1071;52.544;13.374;2023-02-15T11:35:19;37.83;;;24.52;;
2129;SDS011;1071;52.544;13.374;2023-02-15T11:37:51;33.83;;;26.42;;
2129;SDS011;1071;52.544;13.374;2023-02-15T11:40:24;33.17;;;22.17;;
2129;SDS011;1071;52.544;13.374;2023-02-15T11:42:55;34.03;;;24.25;;
2129;SDS011;1071;52.544;13.374;2023-02-15T11:45:26;31.33;;;23.33;;
2129;SDS011;1071;52.544;13.374;2023-02-15T11:47:55;33.75;;;24.17;;
2129;SDS011;1071;52.544;13.374;2023-02-15T11:50:26;29.20;;;21.45;;
2129;SDS011;1071;52.544;13.374;2023-02-15T11:52:56;32.75;;;24.25;;
2129;SDS011;1071;52.544;13.374;2023-02-15T11:55:26;36.92;;;24.10;;
2129;SDS011;1071;52.544;13.374;2023-02-15T11:57:55;32.60;;;21.75;;
2129;SDS011;1071;52.544;13.374;2023-02-15T12:00:32;30.80;;;23.27;;
2129;SDS011;1071;52.544;13.374;2023-02-15T12:03:10;30.55;;;22.90;;
2129;SDS011;1071;52.544;13.374;2023-02-15T12:05:42;33.50;;;23.67;;
2129;SDS011;1071;52.544;13.374;2023-02-15T12:08:15;31.67;;;22.33;;
2129;SDS011;1071;52.544;13.374;2023-02-15T12:10:49;29.88;;;22.48;;
2129;SDS011;1071;52.544;13.374;2023-02-15T12:13:24;27.90;;;20.58;;
2129;SDS011;1071;52.544;13.374;2023-02-15T12:16:11;25.63;;;20.17;;
2129;SDS011;1071;52.544;13.374;2023-02-15T12:18:39;32.22;;;23.10;;
2129;SDS011;1071;52.544;13.374;2023-02-15T12:21:11;28.33;;;21.52;;
2129;SDS011;1071;52.544;13.374;2023-02-15T12:23:41;29.90;;;22.17;;
2129;SDS011;1071;52.544;13.374;2023-02-15T12:26:14;29.58;;;21.80;;
2129;SDS011;1071;52.544;13.374;2023-02-15T12:28:49;23.67;;;18.77;;
2129;SDS011;1071;52.544;13.374;2023-02-15T12:31:20;34.28;;;25.63;;
2129;SDS011;1071;52.544;13.374;2023-02-15T12:33:54;25.70;;;20.23;;
2129;SDS011;1071;52.544;13.374;2023-02-15T12:36:25;28.48;;;21.30;;
2129;SDS011;1071;52.544;13.374;2023-02-15T12:39:15;28.63;;;20.25;;
2129;SDS011;1071;52.544;13.374;2023-02-15T12:41:46;30.73;;;22.90;;
2129;SDS011;1071;52.544;13.374;2023-02-15T12:44:24;26.30;;;21.15;;
2129;SDS011;1071;52.544;13.374;2023-02-15T12:46:57;25.58;;;19.58;;
2129;SDS011;1071;52.544;13.374;2023-02-15T12:49:26;26.35;;;19.80;;
2129;SDS011;1071;52.544;13.374;2023-02-15T12:51:57;22.63;;;19.25;;
2129;SDS011;1071;52.544;13.374;2023-02-15T12:54:54;24.40;;;18.25;;
2129;SDS011;1071;52.544;13.374;2023-02-15T12:57:22;28.90;;;20.80;;
2129;SDS011;1071;52.544;13.374;2023-02-15T12:59:59;26.17;;;20.90;;
2129;SDS011;1071;52.544;13.374;2023-02-15T13:02:33;32.97;;;20.77;;
2129;SDS011;1071;52.544;13.374;2023-02-15T13:05:16;30.27;;;22.10;;
2129;SDS011;1071;52.544;13.374;2023-02-15T13:07:51;26.65;;;18.63;;
2129;SDS011;1071;52.544;13.374;2023-02-15T13:10:31;28.70;;;20.73;;
2129;SDS011;1071;52.544;13.374;2023-02-15T13:13:02;22.00;;;16.95;;
2129;SDS011;1071;52.544;13.374;2023-02-15T13:15:37;20.98;;;17.27;;
2129;SDS011;1071;52.544;13.374;2023-02-15T13:18:12;24.63;;;19.58;;
2129;SDS011;1071;52.544;13.374;2023-02-15T13:20:42;29.95;;;21.45;;
2129;SDS011;1071;52.544;13.374;2023-02-15T13:23:19;29.25;;;20.25;;
2129;SDS011;1071;52.544;13.374;2023-02-15T13:26:02;28.10;;;19.33;;
2129;SDS011;1071;52.544;13.374;2023-02-15T13:28:36;24.85;;;19.63;;
2129;SDS011;1071;52.544;13.374;2023-02-15T13:31:08;23.48;;;17.45;;
2129;SDS011;1071;52.544;13.374;2023-02-15T13:33:39;21.45;;;17.65;;
2129;SDS011;1071;52.544;13.374;2023-02-15T13:36:12;21.17;;;16.30;;
2129;SDS011;1071;52.544;13.374;2023-02-15T13:38:56;23.40;;;18.33;;
2129;SDS011;1071;52.544;13.374;2023-02-15T13:41:40;24.08;;;18.08;;
2129;SDS011;1071;52.544;13.374;2023-02-15T13:44:19;24.55;;;18.85;;
2129;SDS011;1071;52.544;13.374;2023-02-15T13:47:10;26.60;;;18.67;;
2129;SDS011;1071;52.544;13.374;2023-02-15T13:49:47;27.23;;;20.30;;
2129;SDS011;1071;52.544;13.374;2023-02-15T13:52:29;23.95;;;17.75;;
2129;SDS011;1071;52.544;13.374;2023-02-15T13:55:19;23.65;;;17.70;;
2129;SDS011;1071;52.544;13.374;2023-02-15T13:58:01;22.17;;;18.25;;
2129;SDS011;1071;52.544;13.374;2023-02-15T14:00:52;22.42;;;17.85;;
2129;SDS011;1071;52.544;13.374;2023-02-15T14:03:35;26.27;;;18.95;;
2129;SDS011;1071;52.544;13.374;2023-02-15T14:06:19;24.15;;;17.55;;
2129;SDS011;1071;52.544;13.374;2023-02-15T14:09:04;19.88;;;17.77;;
2129;SDS011;1071;52.544;13.374;2023-02-15T14:11:44;20.13;;;17.33;;
2129;SDS011;1071;52.544;13.374;2023-02-15T14:17:24;21.83;;;18.17;;
2129;SDS011;1071;52.544;13.374;2023-02-15T14:21:19;25.80;;;17.83;;
2129;SDS011;1071;52.544;13.374;2023-02-15T14:23:08;24.25;;;19.02;;
2129;SDS011;1071;52.544;13.374;2023-02-15T14:25:55;21.17;;;16.55;;
2129;SDS011;1071;52.544;13.374;2023-02-15T14:28:28;22.35;;;16.98;;
2129;SDS011;1071;52.544;13.374;2023-02-15T14:31:02;20.83;;;16.83;;
2129;SDS011;1071;52.544;13.374;2023-02-15T14:33:34;29.35;;;19.20;;
2129;SDS011;1071;52.544;13.374;2023-02-15T14:36:07;24.00;;;19.25;;
2129;SDS011;1071;52.544;13.374;2023-02-15T14:38:40;20.17;;;16.25;;
2129;SDS011;1071;52.544;13.374;2023-02-15T14:41:19;21.50;;;16.33;;
2129;SDS011;1071;52.544;13.374;2023-02-15T14:43:52;20.75;;;15.00;;
2129;SDS011;1071;52.544;13.374;2023-02-15T14:46:27;19.50;;;15.68;;
2129;SDS011;1071;52.544;13.374;2023-02-15T14:49:03;19.52;;;16.20;;
2129;SDS011;1071;52.544;13.374;2023-02-15T14:51:54;23.65;;;17.70;;
2129;SDS011;1071;52.544;13.374;2023-02-15T14:57:22;18.52;;;16.52;;
2129;SDS011;1071;52.544;13.374;2023-02-15T14:59:54;17.77;;;15.65;;
2129;SDS011;1071;52.544;13.374;2023-02-15T15:02:24;22.50;;;17.50;;
2129;SDS011;1071;52.544;13.374;2023-02-15T15:04:59;20.90;;;18.48;;
2129;SDS011;1071;52.544;13.374;2023-02-15T15:07:36;24.13;;;18.65;;
2129;SDS011;1071;52.544;13.374;2023-02-15T15:22:30;22.92;;;17.23;;
2129;SDS011;1071;52.544;13.374;2023-02-15T15:25:03;19.27;;;17.17;;
2129;SDS011;1071;52.544;13.374;2023-02-15T15:27:42;19.85;;;15.38;;
2129;SDS011;1071;52.544;13.374;2023-02-15T15:36:34;19.30;;;15.93;;
2129;SDS011;1071;52.544;13.374;2023-02-15T15:39:31;18.33;;;15.68;;
2129;SDS011;1071;52.544;13.374;2023-02-15T15:42:21;17.65;;;14.35;;
2129;SDS011;1071;52.544;13.374;2023-02-15T15:47:54;19.20;;;16.17;;
2129;SDS011;1071;52.544;13.374;2023-02-15T15:50:32;19.17;;;16.65;;
2129;SDS011;1071;52.544;13.374;2023-02-15T15:53:03;18.98;;;14.57;;
2129;SDS011;1071;52.544;13.374;2023-02-15T15:55:31;19.77;;;15.10;;
2129;SDS011;1071;52.544;13.374;2023-02-15T15:58:01;20.02;;;14.90;;